Terminal Aerodrome Forecast
Issued by NWS Wichita, KS

Home | Current Version | Previous Version | Text Only | Print | Product List | Glossary On
Versions: 1 2 3 4 5 6 7 8 9 10 11 12 13 14 15 16 17 18 19 20 21 22 23 24 25 26
633
FTUS43 KICT 270513 AAD
TAFICT
TAF AMD
KICT 270513Z 2705/2724 06015G25KT 6SM TSRA SCT009 OVC030CB
     FM270600 11014KT P6SM VCTS SCT015 BKN050CB
     FM271000 15011KT 6SM BR OVC010
     FM271600 17015G23KT P6SM SCT030
     FM271900 17017G24KT P6SM VCTS BKN035CB=

USA.gov is the U.S. government's official web portal to all federal, state and local government web resources and services.